createdAt,value
2018-10-09T00:01:45.417Z,27.87
2018-10-09T00:04:14.792Z,28.25
2018-10-09T00:06:44.285Z,29.35
2018-10-09T00:09:13.756Z,29.18
2018-10-09T00:11:43.120Z,28.42
2018-10-09T00:14:12.564Z,28.85
2018-10-09T00:16:42.033Z,28.85
2018-10-09T00:19:11.453Z,29.25
2018-10-09T00:21:40.874Z,28.30
2018-10-09T00:24:10.288Z,25.88
2018-10-09T00:26:39.759Z,28.30
2018-10-09T00:29:09.291Z,27.60
2018-10-09T00:31:38.699Z,28.38
2018-10-09T00:34:08.206Z,25.95
2018-10-09T00:36:37.621Z,29.70
2018-10-09T00:39:09.708Z,29.32
2018-10-09T00:41:39.121Z,30.20
2018-10-09T00:44:08.678Z,28.30
2018-10-09T00:46:38.162Z,27.25
2018-10-09T00:49:07.766Z,29.00
2018-10-09T00:51:37.144Z,30.72
2018-10-09T00:54:06.705Z,28.38
2018-10-09T00:56:36.247Z,27.67
2018-10-09T00:59:05.732Z,29.18
2018-10-09T01:01:35.201Z,27.60
2018-10-09T01:04:04.655Z,26.25
2018-10-09T01:06:34.034Z,27.30
2018-10-09T01:09:03.470Z,28.25
2018-10-09T01:11:32.949Z,27.93
2018-10-09T01:14:02.381Z,27.77
2018-10-09T01:16:31.774Z,26.65
2018-10-09T01:19:01.137Z,28.15
2018-10-09T01:21:30.561Z,29.00
2018-10-09T01:24:00.022Z,29.10
2018-10-09T01:26:29.331Z,28.67
2018-10-09T01:28:58.771Z,28.25
2018-10-09T01:31:28.173Z,29.70
2018-10-09T01:33:57.535Z,28.83
2018-10-09T01:36:26.904Z,27.10
2018-10-09T01:38:56.294Z,30.12
2018-10-09T01:41:25.676Z,27.50
2018-10-09T01:43:55.094Z,29.42
2018-10-09T01:46:24.532Z,28.20
2018-10-09T01:48:53.882Z,28.60
2018-10-09T01:51:23.254Z,28.85
2018-10-09T01:53:52.707Z,32.42
2018-10-09T01:56:22.133Z,32.25
2018-10-09T01:58:51.515Z,29.12
2018-10-09T02:01:20.940Z,32.28
2018-10-09T02:03:50.321Z,29.10
2018-10-09T02:06:19.730Z,30.75
2018-10-09T02:08:49.121Z,31.10
2018-10-09T02:11:18.560Z,29.75
2018-10-09T02:13:47.919Z,31.17
2018-10-09T02:16:17.388Z,31.93
2018-10-09T02:18:46.887Z,31.97
2018-10-09T02:21:16.399Z,31.15
2018-10-09T02:23:45.871Z,32.75
2018-10-09T02:26:15.576Z,32.98
2018-10-09T02:28:44.977Z,32.48
2018-10-09T02:31:26.832Z,32.50
2018-10-09T02:33:56.234Z,31.45
2018-10-09T02:36:25.632Z,32.88
2018-10-09T02:38:55.054Z,28.95
2018-10-09T02:41:24.453Z,32.63
2018-10-09T02:43:53.805Z,33.00
2018-10-09T02:46:23.173Z,30.45
2018-10-09T02:48:52.583Z,30.95
2018-10-09T02:51:22.021Z,29.30
2018-10-09T02:53:51.391Z,32.28
2018-10-09T02:56:20.767Z,29.87
2018-10-09T02:58:50.122Z,31.00
2018-10-09T03:01:20.950Z,30.57
2018-10-09T03:03:50.330Z,31.87
2018-10-09T03:06:19.766Z,31.93
2018-10-09T03:08:49.288Z,30.50
2018-10-09T03:11:18.863Z,30.80
2018-10-09T03:13:48.284Z,29.85
2018-10-09T03:16:17.772Z,30.65
2018-10-09T03:18:47.245Z,33.38
2018-10-09T03:21:16.711Z,31.60
2018-10-09T03:23:46.232Z,32.38
2018-10-09T03:26:15.667Z,31.75
2018-10-09T03:28:45.126Z,31.87
2018-10-09T03:31:14.560Z,31.15
2018-10-09T03:33:43.945Z,33.53
2018-10-09T03:36:13.535Z,28.55
2018-10-09T03:38:42.948Z,30.55
2018-10-09T03:41:12.349Z,31.80
2018-10-09T03:43:41.823Z,30.62
2018-10-09T03:46:11.228Z,33.88
2018-10-09T03:48:40.592Z,32.63
2018-10-09T03:51:09.989Z,30.97
2018-10-09T03:53:39.388Z,32.80
2018-10-09T03:56:08.874Z,31.23
2018-10-09T03:58:38.276Z,32.45
2018-10-09T04:01:07.759Z,31.42
2018-10-09T04:03:37.167Z,31.05
2018-10-09T04:06:06.622Z,29.85
2018-10-09T04:08:36.036Z,33.35
2018-10-09T04:11:05.423Z,32.28
2018-10-09T04:13:34.847Z,32.50
2018-10-09T04:16:04.308Z,32.33
2018-10-09T04:18:33.707Z,33.38
2018-10-09T04:21:03.172Z,33.25
2018-10-09T04:23:32.613Z,33.92
2018-10-09T04:26:02.053Z,30.60
2018-10-09T04:28:31.726Z,31.70
2018-10-09T04:31:01.196Z,32.15
2018-10-09T04:33:30.595Z,31.90
2018-10-09T04:36:00.012Z,34.40
2018-10-09T04:38:29.523Z,35.08
2018-10-09T04:40:58.964Z,32.03
2018-10-09T04:43:28.428Z,34.15
2018-10-09T04:45:57.844Z,32.53
2018-10-09T04:48:27.307Z,33.25
2018-10-09T04:50:56.774Z,37.28
2018-10-09T04:53:26.260Z,31.77
2018-10-09T04:55:55.739Z,34.75
2018-10-09T04:58:25.176Z,35.50
2018-10-09T05:00:54.623Z,34.65
2018-10-09T05:03:24.077Z,31.93
2018-10-09T05:05:53.544Z,35.38
2018-10-09T05:08:22.941Z,37.42
2018-10-09T05:10:52.343Z,37.67
2018-10-09T05:13:21.835Z,36.13
2018-10-09T05:15:51.273Z,35.78
2018-10-09T05:18:20.599Z,36.45
2018-10-09T05:20:50.094Z,33.18
2018-10-09T05:23:19.635Z,35.45
2018-10-09T05:25:49.003Z,35.35
2018-10-09T05:28:18.482Z,35.55
2018-10-09T05:30:47.918Z,37.38
2018-10-09T05:33:17.361Z,33.28
2018-10-09T05:35:47.129Z,36.58
2018-10-09T05:38:16.514Z,36.13
2018-10-09T05:40:45.933Z,35.33
2018-10-09T05:43:15.382Z,35.75
2018-10-09T05:45:44.781Z,35.65
2018-10-09T05:48:14.195Z,36.73
2018-10-09T05:50:43.614Z,39.53
2018-10-09T05:53:12.991Z,39.95
2018-10-09T05:55:42.412Z,37.08
2018-10-09T05:58:11.924Z,36.13
2018-10-09T06:00:41.252Z,37.10
2018-10-09T06:03:10.655Z,37.33
2018-10-09T06:05:40.010Z,35.68
2018-10-09T06:08:09.470Z,36.50
2018-10-09T06:10:38.909Z,35.90
2018-10-09T06:13:08.429Z,37.67
2018-10-09T06:15:37.939Z,35.50
2018-10-09T06:18:07.294Z,38.10
2018-10-09T06:20:36.819Z,38.70
2018-10-09T06:23:06.764Z,36.98
2018-10-09T06:25:36.314Z,37.80
2018-10-09T06:28:06.638Z,36.85
2018-10-09T06:30:36.473Z,40.20
2018-10-09T06:34:09.585Z,38.30
2018-10-09T06:36:39.041Z,37.75
2018-10-09T06:39:10.590Z,36.93
2018-10-09T06:41:41.266Z,37.28
2018-10-09T06:44:10.850Z,37.53
2018-10-09T06:46:40.652Z,39.55
2018-10-09T06:49:10.109Z,41.40
2018-10-09T06:51:39.635Z,37.28
2018-10-09T06:54:09.249Z,40.85
2018-10-09T06:56:38.728Z,40.23
2018-10-09T06:59:08.227Z,43.33
2018-10-09T07:01:37.696Z,41.75
2018-10-09T07:04:07.396Z,41.18
2018-10-09T07:06:36.920Z,41.83
2018-10-09T07:09:10.389Z,42.50
2018-10-09T07:11:39.844Z,44.40
2018-10-09T07:14:09.335Z,44.67
2018-10-09T07:16:38.817Z,41.25
2018-10-09T07:19:08.277Z,41.13
2018-10-09T07:21:37.713Z,41.65
2018-10-09T07:24:07.133Z,43.15
2018-10-09T07:26:36.646Z,41.10
2018-10-09T07:29:06.025Z,44.40
2018-10-09T07:31:35.506Z,44.15
2018-10-09T07:34:04.934Z,40.28
2018-10-09T07:36:34.511Z,42.45
2018-10-09T07:39:05.180Z,43.63
2018-10-09T07:41:34.664Z,44.03
2018-10-09T07:44:04.416Z,43.20
2018-10-09T07:46:33.918Z,46.35
2018-10-09T07:49:03.389Z,44.20
2018-10-09T07:51:32.878Z,46.63
2018-10-09T07:54:02.287Z,46.02
2018-10-09T07:56:31.689Z,44.60
2018-10-09T07:59:01.156Z,45.73
2018-10-09T08:01:30.580Z,46.65
2018-10-09T08:04:00.024Z,47.13
2018-10-09T08:06:29.550Z,49.80
2018-10-09T08:08:58.990Z,49.35
2018-10-09T08:11:28.451Z,47.35
2018-10-09T08:13:58.136Z,44.30
2018-10-09T08:16:27.678Z,48.63
2018-10-09T08:18:57.192Z,44.98
2018-10-09T08:21:26.665Z,45.85
2018-10-09T08:23:55.999Z,46.55
2018-10-09T08:26:25.472Z,45.35
2018-10-09T08:28:55.054Z,46.83
2018-10-09T08:31:24.699Z,46.68
2018-10-09T08:33:54.277Z,45.03
2018-10-09T08:36:23.771Z,48.28
2018-10-09T08:38:53.282Z,45.67
2018-10-09T08:41:22.862Z,46.30
2018-10-09T08:43:52.276Z,46.20
2018-10-09T08:46:21.804Z,45.63
2018-10-09T08:48:51.338Z,46.88
2018-10-09T08:51:21.667Z,45.83
2018-10-09T08:53:51.164Z,46.42
2018-10-09T08:56:20.803Z,46.37
2018-10-09T08:58:50.383Z,51.00
2018-10-09T09:01:19.785Z,50.33
2018-10-09T09:03:49.211Z,49.18
2018-10-09T09:06:18.657Z,49.35
2018-10-09T09:08:48.141Z,50.35
2018-10-09T09:11:17.705Z,47.60
2018-10-09T09:13:47.226Z,48.20
2018-10-09T09:16:16.889Z,50.73
2018-10-09T09:18:46.596Z,47.88
2018-10-09T09:21:16.253Z,48.52
2018-10-09T09:23:45.765Z,51.90
2018-10-09T09:26:15.433Z,50.50
2018-10-09T09:28:44.834Z,49.13
2018-10-09T09:31:14.285Z,50.03
2018-10-09T09:33:43.822Z,50.83
2018-10-09T09:36:13.243Z,50.20
2018-10-09T09:38:42.798Z,49.03
2018-10-09T09:41:12.249Z,49.75
2018-10-09T09:43:41.654Z,50.90
2018-10-09T09:46:11.142Z,48.63
2018-10-09T09:48:40.538Z,48.85
2018-10-09T09:51:09.971Z,46.98
2018-10-09T09:53:39.327Z,47.50
2018-10-09T09:56:08.818Z,49.75
2018-10-09T09:58:38.451Z,50.70
2018-10-09T10:01:08.010Z,47.13
2018-10-09T10:03:38.955Z,45.15
2018-10-09T10:06:08.864Z,48.75
2018-10-09T10:08:38.733Z,49.55
2018-10-09T10:11:08.245Z,46.18
2018-10-09T10:13:37.705Z,47.45
2018-10-09T10:16:07.182Z,46.63
2018-10-09T10:18:36.587Z,45.83
2018-10-09T10:21:06.149Z,47.17
2018-10-09T10:23:35.552Z,44.90
2018-10-09T10:26:05.037Z,41.20
2018-10-09T10:28:34.464Z,43.13
2018-10-09T10:31:03.970Z,40.03
2018-10-09T10:33:33.392Z,38.88
2018-10-09T10:36:02.884Z,40.75
2018-10-09T10:38:32.279Z,40.08
2018-10-09T10:41:01.744Z,41.10
2018-10-09T10:43:31.196Z,38.70
2018-10-09T10:46:00.605Z,39.23
2018-10-09T10:48:30.026Z,36.85
2018-10-09T10:50:59.413Z,38.25
2018-10-09T10:53:28.823Z,35.48
2018-10-09T10:55:58.314Z,35.28
2018-10-09T10:58:27.721Z,36.48
2018-10-09T11:00:57.167Z,34.53
2018-10-09T11:03:26.595Z,36.83
2018-10-09T11:05:55.984Z,33.15
2018-10-09T11:08:25.576Z,33.63
2018-10-09T11:10:54.949Z,34.78
2018-10-09T11:13:24.331Z,34.70
2018-10-09T11:15:53.905Z,38.13
2018-10-09T11:18:23.347Z,37.05
2018-10-09T11:20:52.896Z,36.10
2018-10-09T11:23:22.303Z,36.85
2018-10-09T11:25:51.836Z,35.80
2018-10-09T11:28:21.380Z,34.23
2018-10-09T11:30:50.769Z,32.98
2018-10-09T11:33:20.147Z,34.27
2018-10-09T11:35:49.675Z,36.00
2018-10-09T11:38:19.221Z,34.35
2018-10-09T11:40:48.579Z,32.98
2018-10-09T11:43:18.035Z,32.63
2018-10-09T11:45:47.516Z,34.90
2018-10-09T11:48:16.960Z,33.35
2018-10-09T11:50:46.464Z,32.65
2018-10-09T11:53:15.894Z,30.97
2018-10-09T11:55:45.399Z,30.50
2018-10-09T11:58:14.823Z,30.97
2018-10-09T12:00:45.504Z,30.68
2018-10-09T12:03:14.938Z,30.15
2018-10-09T12:05:44.393Z,30.92
2018-10-09T12:08:13.803Z,29.55
2018-10-09T12:10:43.233Z,30.65
2018-10-09T12:13:12.650Z,29.60
2018-10-09T12:15:42.079Z,30.40
2018-10-09T12:18:11.555Z,28.10
2018-10-09T12:20:41.283Z,28.98
2018-10-09T12:23:11.729Z,24.43
2018-10-09T12:25:41.144Z,20.25
2018-10-09T12:28:10.574Z,23.00
2018-10-09T12:30:40.129Z,20.00
2018-10-09T12:33:09.519Z,21.65
2018-10-09T12:35:38.982Z,20.97
2018-10-09T12:38:08.501Z,21.65
2018-10-09T12:40:37.934Z,22.07
2018-10-09T12:43:07.390Z,20.10
2018-10-09T12:45:36.794Z,19.40
2018-10-09T12:48:06.346Z,19.37
2018-10-09T12:50:35.757Z,20.52
2018-10-09T12:53:08.181Z,20.02
2018-10-09T12:55:37.567Z,18.20
2018-10-09T12:58:08.119Z,18.55
2018-10-09T13:00:37.524Z,19.73
2018-10-09T13:03:07.314Z,19.27
2018-10-09T13:05:36.725Z,17.98
2018-10-09T13:08:06.189Z,18.90
2018-10-09T13:10:35.637Z,19.98
2018-10-09T13:13:05.030Z,18.87
2018-10-09T13:15:34.435Z,18.60
2018-10-09T13:18:04.071Z,19.10
2018-10-09T13:20:33.422Z,20.00
2018-10-09T13:23:14.380Z,19.00
2018-10-09T13:25:43.837Z,18.02
2018-10-09T13:28:13.265Z,18.40
2018-10-09T13:30:42.674Z,18.90
2018-10-09T13:33:12.058Z,18.87
2018-10-09T13:35:41.466Z,18.62
2018-10-09T13:38:10.965Z,18.25
2018-10-09T13:40:40.379Z,19.02
2018-10-09T13:43:09.932Z,16.70
2018-10-09T13:45:39.375Z,17.60
2018-10-09T13:48:09.438Z,16.12
2018-10-09T13:50:38.899Z,17.07
2018-10-09T13:53:08.332Z,20.30
2018-10-09T13:55:37.752Z,18.67
2018-10-09T13:58:07.247Z,16.87
2018-10-09T14:00:36.727Z,17.90
2018-10-09T14:03:06.115Z,16.30
2018-10-09T14:05:35.475Z,17.00
2018-10-09T14:08:04.861Z,17.52
2018-10-09T14:10:34.337Z,17.92
2018-10-09T14:13:03.719Z,17.05
2018-10-09T14:15:33.093Z,17.98
2018-10-09T14:18:02.557Z,17.10
2018-10-09T14:20:32.017Z,17.50
2018-10-09T14:23:01.523Z,17.77
2018-10-09T14:25:31.384Z,16.23
2018-10-09T14:28:00.831Z,15.70
2018-10-09T14:30:30.292Z,16.15
2018-10-09T14:32:59.728Z,16.42
2018-10-09T14:35:29.280Z,16.30
2018-10-09T14:37:58.742Z,13.60
2018-10-09T14:40:28.163Z,14.65
2018-10-09T14:42:57.620Z,16.85
2018-10-09T14:45:27.095Z,15.50
2018-10-09T14:47:56.565Z,16.55
2018-10-09T14:50:25.955Z,14.90
2018-10-09T14:52:55.405Z,16.40
2018-10-09T14:55:24.877Z,15.75
2018-10-09T14:57:54.506Z,17.27
2018-10-09T15:00:23.945Z,15.80
2018-10-09T15:02:53.339Z,15.35
2018-10-09T15:05:22.735Z,13.90
2018-10-09T15:07:52.657Z,14.25
2018-10-09T15:10:22.549Z,14.38
2018-10-09T15:12:52.027Z,15.15
2018-10-09T15:15:21.414Z,15.85
2018-10-09T15:17:50.873Z,14.50
2018-10-09T15:20:20.308Z,15.25
2018-10-09T15:22:49.728Z,14.70
2018-10-09T15:25:19.336Z,14.23
2018-10-09T15:27:48.774Z,14.38
2018-10-09T15:30:18.259Z,14.00
2018-10-09T15:32:49.134Z,16.12
2018-10-09T15:35:18.671Z,15.13
2018-10-09T15:37:48.092Z,13.78
2018-10-09T15:40:17.608Z,12.23
2018-10-09T15:42:47.039Z,12.88
2018-10-09T15:45:16.512Z,12.45
2018-10-09T15:47:45.890Z,12.63
2018-10-09T15:50:15.380Z,13.60
2018-10-09T15:52:44.950Z,12.90
2018-10-09T15:55:14.333Z,12.53
2018-10-09T15:57:43.716Z,12.82
2018-10-09T16:00:13.173Z,13.50
2018-10-09T16:02:42.662Z,12.55
2018-10-09T16:05:12.076Z,12.35
2018-10-09T16:07:41.482Z,11.85
2018-10-09T16:10:10.968Z,13.10
2018-10-09T16:12:40.431Z,13.13
2018-10-09T16:15:09.886Z,13.20
2018-10-09T16:17:39.381Z,11.93
2018-10-09T16:20:08.843Z,14.03
2018-10-09T16:22:38.440Z,12.07
2018-10-09T16:25:07.896Z,12.15
2018-10-09T16:27:37.389Z,12.13
2018-10-09T16:30:07.020Z,12.88
2018-10-09T16:32:36.571Z,13.18
2018-10-09T16:35:06.141Z,12.37
2018-10-09T16:37:34.560Z,13.83
2018-10-09T16:40:04.486Z,13.35
2018-10-09T16:42:34.039Z,12.53
2018-10-09T16:45:03.499Z,13.40
2018-10-09T16:47:33.019Z,13.68
2018-10-09T16:50:02.528Z,13.60
2018-10-09T16:52:33.757Z,13.20
2018-10-09T16:55:03.204Z,14.53
2018-10-09T16:57:32.691Z,14.60
2018-10-09T17:00:02.103Z,14.35
2018-10-09T17:02:31.607Z,15.25
2018-10-09T17:05:01.032Z,14.75
2018-10-09T17:07:31.126Z,17.05
2018-10-09T17:10:00.547Z,17.98
2018-10-09T17:12:30.179Z,16.32
2018-10-09T17:14:59.711Z,18.05
2018-10-09T17:17:29.267Z,18.10
2018-10-09T17:19:58.736Z,17.50
2018-10-09T17:22:28.306Z,20.50
2018-10-09T17:24:58.853Z,20.77
2018-10-09T17:27:28.336Z,19.37
2018-10-09T17:29:57.820Z,20.92
2018-10-09T17:32:27.320Z,21.80
2018-10-09T17:34:56.716Z,22.07
2018-10-09T17:37:26.310Z,21.60
2018-10-09T17:39:55.934Z,22.90
2018-10-09T17:42:25.696Z,22.67
2018-10-09T17:44:55.458Z,22.80
2018-10-09T17:47:24.940Z,25.35
2018-10-09T17:49:54.517Z,24.45
2018-10-09T17:52:24.098Z,32.70
2018-10-09T17:54:53.875Z,24.05
2018-10-09T17:57:23.339Z,24.63
2018-10-09T17:59:52.840Z,25.48
2018-10-09T18:02:22.359Z,23.25
2018-10-09T18:04:51.822Z,24.15
2018-10-09T18:07:21.476Z,24.63
2018-10-09T18:09:50.863Z,26.60
2018-10-09T18:12:20.375Z,25.35
2018-10-09T18:14:49.904Z,25.25
2018-10-09T18:17:19.262Z,27.02
2018-10-09T18:19:48.645Z,28.35
2018-10-09T18:22:18.127Z,26.17
2018-10-09T18:24:47.549Z,29.40
2018-10-09T18:27:17.042Z,25.50
2018-10-09T18:29:46.601Z,27.98
2018-10-09T18:32:16.089Z,29.25
2018-10-09T18:34:45.667Z,30.05
2018-10-09T18:37:15.209Z,29.95
2018-10-09T18:39:44.822Z,27.55
2018-10-09T18:42:14.235Z,30.00
2018-10-09T18:44:43.695Z,27.87
2018-10-09T18:47:18.237Z,28.77
2018-10-09T18:49:48.147Z,29.32
2018-10-09T18:52:17.562Z,29.23
2018-10-09T18:54:47.011Z,29.95
2018-10-09T18:57:16.486Z,31.73
2018-10-09T19:02:28.283Z,30.25
2018-10-09T19:04:58.672Z,30.75
2018-10-09T19:07:28.218Z,32.30
2018-10-09T19:09:57.625Z,31.48
2018-10-09T19:12:27.189Z,31.70
2018-10-09T19:14:56.781Z,30.35
2018-10-09T19:17:27.410Z,32.15
2018-10-09T19:19:56.862Z,30.90
2018-10-09T19:22:26.450Z,30.30
2018-10-09T19:24:56.136Z,31.68
2018-10-09T19:27:26.356Z,30.40
2018-10-09T19:29:55.851Z,29.55
2018-10-09T19:32:25.372Z,30.05
2018-10-09T19:34:54.724Z,32.08
2018-10-09T19:37:24.680Z,31.62
2018-10-09T19:39:54.134Z,28.83
2018-10-09T19:42:23.547Z,31.30
2018-10-09T19:44:52.980Z,32.38
2018-10-09T19:47:22.440Z,30.40
2018-10-09T19:49:52.035Z,33.10
2018-10-09T19:52:21.441Z,31.45
2018-10-09T19:54:50.979Z,32.67
2018-10-09T19:57:20.481Z,34.65
2018-10-09T19:59:50.035Z,33.67
2018-10-09T20:02:19.462Z,31.80
2018-10-09T20:04:48.968Z,32.70
2018-10-09T20:07:18.479Z,34.05
2018-10-09T20:09:47.980Z,34.73
2018-10-09T20:12:17.628Z,33.55
2018-10-09T20:14:47.126Z,33.55
2018-10-09T20:17:16.617Z,32.28
2018-10-09T20:19:46.285Z,33.73
2018-10-09T20:22:15.697Z,32.10
2018-10-09T20:24:45.193Z,35.85
2018-10-09T20:27:14.836Z,32.67
2018-10-09T20:29:44.397Z,32.80
2018-10-09T20:32:13.998Z,33.92
2018-10-09T20:34:43.626Z,34.25
2018-10-09T20:37:13.207Z,32.95
2018-10-09T20:39:42.835Z,34.73
2018-10-09T20:42:12.436Z,36.23
2018-10-09T20:44:41.942Z,35.10
2018-10-09T20:47:11.448Z,36.10
2018-10-09T20:49:40.960Z,35.43
2018-10-09T20:52:10.504Z,35.05
2018-10-09T20:54:40.058Z,32.85
2018-10-09T20:57:09.575Z,35.63
2018-10-09T20:59:39.108Z,34.85
2018-10-09T21:02:08.574Z,34.75
2018-10-09T21:04:38.092Z,36.05
2018-10-09T21:07:07.652Z,36.48
2018-10-09T21:09:37.085Z,35.35
2018-10-09T21:12:06.542Z,34.98
2018-10-09T21:14:35.998Z,37.33
2018-10-09T21:17:06.377Z,37.93
2018-10-09T21:19:37.754Z,36.38
2018-10-09T21:22:07.168Z,38.78
2018-10-09T21:24:36.644Z,36.93
2018-10-09T21:27:06.172Z,39.10
2018-10-09T21:29:35.610Z,35.95
2018-10-09T21:32:05.157Z,38.92
2018-10-09T21:34:34.609Z,37.58
2018-10-09T21:37:04.031Z,36.65
2018-10-09T21:39:33.487Z,35.75
2018-10-09T21:42:03.125Z,36.85
2018-10-09T21:44:32.865Z,36.38
2018-10-09T21:47:02.763Z,37.10
2018-10-09T21:49:32.231Z,38.80
2018-10-09T21:52:01.965Z,39.48
2018-10-09T21:54:31.529Z,38.90
2018-10-09T21:57:01.085Z,39.40
2018-10-09T21:59:30.579Z,40.78
2018-10-09T22:02:00.120Z,38.92
2018-10-09T22:04:29.603Z,38.80
2018-10-09T22:06:59.115Z,35.95
2018-10-09T22:09:28.560Z,35.10
2018-10-09T22:11:58.080Z,35.70
2018-10-09T22:14:27.643Z,37.40
2018-10-09T22:16:57.176Z,34.50
2018-10-09T22:19:26.667Z,36.15
2018-10-09T22:21:56.051Z,36.50
2018-10-09T22:24:25.725Z,34.27
2018-10-09T22:26:55.098Z,34.48
2018-10-09T22:29:24.554Z,35.90
2018-10-09T22:31:54.016Z,33.40
2018-10-09T22:34:23.455Z,35.75
2018-10-09T22:36:52.937Z,35.33
2018-10-09T22:39:22.511Z,34.65
2018-10-09T22:41:52.049Z,34.65
2018-10-09T22:44:21.526Z,36.08
2018-10-09T22:46:50.955Z,31.40
2018-10-09T22:49:20.480Z,34.38
2018-10-09T22:51:49.949Z,34.83
2018-10-09T22:54:19.534Z,33.60
2018-10-09T22:56:49.079Z,36.17
2018-10-09T22:59:18.555Z,36.00
2018-10-09T23:01:47.977Z,34.40
2018-10-09T23:04:17.466Z,36.05
2018-10-09T23:06:46.868Z,35.10
2018-10-09T23:09:16.275Z,34.15
2018-10-09T23:11:45.667Z,35.28
2018-10-09T23:14:17.394Z,32.95
2018-10-09T23:16:46.803Z,35.90
2018-10-09T23:19:16.241Z,33.63
2018-10-09T23:21:45.643Z,35.75
2018-10-09T23:24:15.239Z,35.60
2018-10-09T23:26:44.765Z,35.30
2018-10-09T23:29:14.193Z,36.45
2018-10-09T23:31:43.681Z,35.80
2018-10-09T23:34:13.173Z,35.08
2018-10-09T23:36:42.609Z,35.88
2018-10-09T23:39:12.096Z,34.88
2018-10-09T23:41:41.568Z,35.65
2018-10-09T23:44:11.027Z,36.00
2018-10-09T23:46:40.514Z,35.23
2018-10-09T23:49:09.945Z,36.08
2018-10-09T23:51:39.393Z,36.33
2018-10-09T23:54:08.884Z,34.78
2018-10-09T23:56:38.326Z,36.70
2018-10-09T23:59:08.309Z,33.65
